Aérodrome :
LOGIN :

S'inscrire | Disclaimer

   EN    FR    IT 

 










Légende :    VFR   VFR Marginal   IFR   IFR Intensif   IFR Très Intensif
Visi : 
Plafond : 
>= 8 km
>= 3000ft
5 à 8 km
1000 à 3000 ft
1500m à 5 km
500 à 1000 ft
800 à 1500m
200 à 500 ft
< 800m
< 200 ft
Symboles :   Orages  Brouillard  Fortes neiges  Fortes précipitations  Vent > 20 kt
SIGMETs :   Divers  Orages  Givrage  Turbulence  Onde Orograph.  Cendres Volcan.






- Altitude de l'aérodrome : 233 ft
- Code IATA : REU


LERS - Reus Tarragona

DERNIER METAR :
  • 231730Z VRB01KT CAVOK 15/11 Q1030

METARs EXPIRÉS :
  • 231700Z VRB02KT CAVOK 16/11 Q1030
  • 231630Z 17003KT 120V220 CAVOK 17/11 Q1030
  • 231600Z 19006KT 150V230 CAVOK 17/11 Q1030
  • 231530Z 19008KT 160V250 CAVOK 17/11 Q1030
  • 231500Z 19006KT 140V230 CAVOK 18/10 Q1030

TAF TAF LERS
Valide du 23 à 15h jusqu'au 24 à 15h UTC


231400Z 2315/2415 23008KT 9999 FEW020 TX21/2413Z TN04/2406Z
BECMG 2317/2319 VRB04KT
PROB30
TEMPO 2400/2407 4000 BR
BECMG 2411/2413 24010KT



MET'MAP, la Météo Aéronautique d'un coup d'oeil ! - Copyright ORBIFLY Décembre 2007 - Disclaimer

ORBIFLY MET'MAP TEAM :

Programmation & Développement : Alexandra Zaïnal
Sur une idée originale de : Baudouin d'Aumeries
Assistance à la programmation : Marc-Olivier Méhu
Soutien technique & logistique : Manuel Goepfert

Contact : metmap@orbifly.com




SOURCES & CREDITS :

   NOAA